sensor_id;sensor_type;location;lat;lon;timestamp;P1;durP1;ratioP1;P2;durP2;ratioP2
9328;SDS011;4703;48.748;19.142;2022-10-31T00:01:25;11.90;;;9.87;;
9328;SDS011;4703;48.748;19.142;2022-10-31T00:03:55;11.73;;;10.03;;
9328;SDS011;4703;48.748;19.142;2022-10-31T00:06:22;12.07;;;10.73;;
9328;SDS011;4703;48.748;19.142;2022-10-31T00:08:54;12.03;;;9.00;;
9328;SDS011;4703;48.748;19.142;2022-10-31T00:11:24;12.07;;;9.40;;
9328;SDS011;4703;48.748;19.142;2022-10-31T00:13:51;9.73;;;8.80;;
9328;SDS011;4703;48.748;19.142;2022-10-31T00:16:22;9.50;;;8.50;;
9328;SDS011;4703;48.748;19.142;2022-10-31T00:18:55;9.07;;;8.13;;
9328;SDS011;4703;48.748;19.142;2022-10-31T00:21:25;9.33;;;8.43;;
9328;SDS011;4703;48.748;19.142;2022-10-31T00:23:53;11.27;;;9.80;;
9328;SDS011;4703;48.748;19.142;2022-10-31T00:26:20;11.20;;;9.77;;
9328;SDS011;4703;48.748;19.142;2022-10-31T00:28:47;16.50;;;10.27;;
9328;SDS011;4703;48.748;19.142;2022-10-31T00:31:14;10.60;;;8.30;;
9328;SDS011;4703;48.748;19.142;2022-10-31T00:33:41;10.43;;;8.93;;
9328;SDS011;4703;48.748;19.142;2022-10-31T00:36:13;9.43;;;8.40;;
9328;SDS011;4703;48.748;19.142;2022-10-31T00:38:43;9.43;;;8.40;;
9328;SDS011;4703;48.748;19.142;2022-10-31T00:41:12;10.43;;;8.63;;
9328;SDS011;4703;48.748;19.142;2022-10-31T00:43:42;10.60;;;9.13;;
9328;SDS011;4703;48.748;19.142;2022-10-31T00:46:09;13.30;;;8.57;;
9328;SDS011;4703;48.748;19.142;2022-10-31T00:48:37;10.23;;;9.13;;
9328;SDS011;4703;48.748;19.142;2022-10-31T00:51:04;12.33;;;9.53;;
9328;SDS011;4703;48.748;19.142;2022-10-31T00:53:32;10.70;;;9.60;;
9328;SDS011;4703;48.748;19.142;2022-10-31T00:55:59;9.40;;;8.50;;
9328;SDS011;4703;48.748;19.142;2022-10-31T00:58:26;9.60;;;8.60;;
9328;SDS011;4703;48.748;19.142;2022-10-31T01:00:53;10.40;;;8.00;;
9328;SDS011;4703;48.748;19.142;2022-10-31T01:03:24;8.80;;;7.90;;
9328;SDS011;4703;48.748;19.142;2022-10-31T01:05:58;9.50;;;8.57;;
9328;SDS011;4703;48.748;19.142;2022-10-31T01:08:28;8.53;;;7.50;;
9328;SDS011;4703;48.748;19.142;2022-10-31T01:11:14;10.10;;;9.10;;
9328;SDS011;4703;48.748;19.142;2022-10-31T01:13:45;11.30;;;8.37;;
9328;SDS011;4703;48.748;19.142;2022-10-31T01:16:14;9.70;;;7.90;;
9328;SDS011;4703;48.748;19.142;2022-10-31T01:18:43;8.97;;;8.10;;
9328;SDS011;4703;48.748;19.142;2022-10-31T01:21:11;14.00;;;8.50;;
9328;SDS011;4703;48.748;19.142;2022-10-31T01:23:47;9.60;;;8.00;;
9328;SDS011;4703;48.748;19.142;2022-10-31T01:26:16;9.47;;;8.40;;
9328;SDS011;4703;48.748;19.142;2022-10-31T01:31:18;8.57;;;7.53;;
9328;SDS011;4703;48.748;19.142;2022-10-31T01:33:47;9.47;;;8.57;;
9328;SDS011;4703;48.748;19.142;2022-10-31T01:36:16;11.93;;;8.00;;
9328;SDS011;4703;48.748;19.142;2022-10-31T01:38:48;8.33;;;7.60;;
9328;SDS011;4703;48.748;19.142;2022-10-31T01:41:19;8.90;;;8.00;;
9328;SDS011;4703;48.748;19.142;2022-10-31T01:43:59;9.43;;;8.40;;
9328;SDS011;4703;48.748;19.142;2022-10-31T01:46:36;10.50;;;8.37;;
9328;SDS011;4703;48.748;19.142;2022-10-31T01:49:15;10.60;;;8.50;;
9328;SDS011;4703;48.748;19.142;2022-10-31T01:54:36;8.63;;;7.73;;
9328;SDS011;4703;48.748;19.142;2022-10-31T01:57:08;10.00;;;7.47;;
9328;SDS011;4703;48.748;19.142;2022-10-31T01:59:39;9.83;;;8.00;;
9328;SDS011;4703;48.748;19.142;2022-10-31T02:02:12;8.70;;;7.80;;
9328;SDS011;4703;48.748;19.142;2022-10-31T02:04:41;7.97;;;7.17;;
9328;SDS011;4703;48.748;19.142;2022-10-31T02:07:10;10.17;;;7.47;;
9328;SDS011;4703;48.748;19.142;2022-10-31T02:09:41;10.17;;;7.93;;
9328;SDS011;4703;48.748;19.142;2022-10-31T02:12:09;8.17;;;7.23;;
9328;SDS011;4703;48.748;19.142;2022-10-31T02:14:38;9.17;;;7.77;;
9328;SDS011;4703;48.748;19.142;2022-10-31T02:17:06;7.90;;;7.20;;
9328;SDS011;4703;48.748;19.142;2022-10-31T02:22:24;8.07;;;7.27;;
9328;SDS011;4703;48.748;19.142;2022-10-31T02:42:42;6.03;;;5.53;;
9328;SDS011;4703;48.748;19.142;2022-10-31T02:48:23;6.73;;;5.87;;
9328;SDS011;4703;48.748;19.142;2022-10-31T02:50:58;12.20;;;6.60;;
9328;SDS011;4703;48.748;19.142;2022-10-31T02:53:31;7.17;;;6.30;;
9328;SDS011;4703;48.748;19.142;2022-10-31T02:56:11;8.43;;;5.73;;
9328;SDS011;4703;48.748;19.142;2022-10-31T02:58:54;6.77;;;6.17;;
9328;SDS011;4703;48.748;19.142;2022-10-31T03:19:04;5.57;;;5.07;;
9328;SDS011;4703;48.748;19.142;2022-10-31T03:24:06;6.20;;;5.60;;
9328;SDS011;4703;48.748;19.142;2022-10-31T03:26:36;6.00;;;5.37;;
9328;SDS011;4703;48.748;19.142;2022-10-31T03:29:08;5.93;;;5.33;;
9328;SDS011;4703;48.748;19.142;2022-10-31T03:31:54;6.17;;;5.30;;
9328;SDS011;4703;48.748;19.142;2022-10-31T03:34:28;8.50;;;5.20;;
9328;SDS011;4703;48.748;19.142;2022-10-31T03:36:57;6.30;;;5.13;;
9328;SDS011;4703;48.748;19.142;2022-10-31T03:39:28;6.40;;;5.80;;
9328;SDS011;4703;48.748;19.142;2022-10-31T03:42:00;5.97;;;5.37;;
9328;SDS011;4703;48.748;19.142;2022-10-31T03:44:32;5.60;;;5.10;;
9328;SDS011;4703;48.748;19.142;2022-10-31T03:47:01;5.97;;;5.47;;
9328;SDS011;4703;48.748;19.142;2022-10-31T03:49:30;6.37;;;5.80;;
9328;SDS011;4703;48.748;19.142;2022-10-31T03:52:04;7.40;;;6.33;;
9328;SDS011;4703;48.748;19.142;2022-10-31T03:54:53;7.00;;;5.03;;
9328;SDS011;4703;48.748;19.142;2022-10-31T03:57:31;5.63;;;5.03;;
9328;SDS011;4703;48.748;19.142;2022-10-31T04:00:10;7.10;;;5.40;;
9328;SDS011;4703;48.748;19.142;2022-10-31T04:02:44;5.50;;;4.90;;
9328;SDS011;4703;48.748;19.142;2022-10-31T04:05:22;7.20;;;5.40;;
9328;SDS011;4703;48.748;19.142;2022-10-31T04:07:51;7.67;;;6.33;;
9328;SDS011;4703;48.748;19.142;2022-10-31T04:10:21;5.73;;;5.30;;
9328;SDS011;4703;48.748;19.142;2022-10-31T04:13:00;9.27;;;6.23;;
9328;SDS011;4703;48.748;19.142;2022-10-31T04:15:31;6.43;;;5.83;;
9328;SDS011;4703;48.748;19.142;2022-10-31T04:18:01;8.20;;;6.10;;
9328;SDS011;4703;48.748;19.142;2022-10-31T04:20:32;6.50;;;5.90;;
9328;SDS011;4703;48.748;19.142;2022-10-31T04:23:05;8.00;;;6.10;;
9328;SDS011;4703;48.748;19.142;2022-10-31T04:25:45;6.33;;;5.27;;
9328;SDS011;4703;48.748;19.142;2022-10-31T04:28:12;6.60;;;6.03;;
9328;SDS011;4703;48.748;19.142;2022-10-31T04:30:39;7.50;;;6.70;;
9328;SDS011;4703;48.748;19.142;2022-10-31T04:33:06;6.87;;;6.17;;
9328;SDS011;4703;48.748;19.142;2022-10-31T04:35:33;7.13;;;5.70;;
9328;SDS011;4703;48.748;19.142;2022-10-31T04:38:00;6.20;;;5.33;;
9328;SDS011;4703;48.748;19.142;2022-10-31T04:40:27;7.67;;;6.70;;
9328;SDS011;4703;48.748;19.142;2022-10-31T04:42:54;6.37;;;5.43;;
9328;SDS011;4703;48.748;19.142;2022-10-31T04:45:21;6.83;;;6.13;;
9328;SDS011;4703;48.748;19.142;2022-10-31T04:47:48;9.53;;;5.30;;
9328;SDS011;4703;48.748;19.142;2022-10-31T04:50:15;6.20;;;5.60;;
9328;SDS011;4703;48.748;19.142;2022-10-31T04:52:42;8.50;;;6.00;;
9328;SDS011;4703;48.748;19.142;2022-10-31T04:55:11;6.07;;;5.47;;
9328;SDS011;4703;48.748;19.142;2022-10-31T04:57:42;8.07;;;6.80;;
9328;SDS011;4703;48.748;19.142;2022-10-31T05:00:15;6.30;;;5.67;;
9328;SDS011;4703;48.748;19.142;2022-10-31T05:02:46;7.90;;;5.87;;
9328;SDS011;4703;48.748;19.142;2022-10-31T05:05:15;7.00;;;5.67;;
9328;SDS011;4703;48.748;19.142;2022-10-31T05:07:46;7.43;;;5.47;;
9328;SDS011;4703;48.748;19.142;2022-10-31T05:10:16;7.90;;;6.47;;
9328;SDS011;4703;48.748;19.142;2022-10-31T05:12:49;6.00;;;5.30;;
9328;SDS011;4703;48.748;19.142;2022-10-31T05:15:25;6.40;;;5.87;;
9328;SDS011;4703;48.748;19.142;2022-10-31T05:17:53;7.97;;;6.43;;
9328;SDS011;4703;48.748;19.142;2022-10-31T05:20:22;9.67;;;6.00;;
9328;SDS011;4703;48.748;19.142;2022-10-31T05:22:54;6.60;;;5.87;;
9328;SDS011;4703;48.748;19.142;2022-10-31T05:25:23;6.47;;;5.60;;
9328;SDS011;4703;48.748;19.142;2022-10-31T05:27:53;7.70;;;6.20;;
9328;SDS011;4703;48.748;19.142;2022-10-31T05:30:26;6.00;;;5.40;;
9328;SDS011;4703;48.748;19.142;2022-10-31T05:32:56;5.60;;;5.10;;
9328;SDS011;4703;48.748;19.142;2022-10-31T05:35:28;5.77;;;5.27;;
9328;SDS011;4703;48.748;19.142;2022-10-31T05:37:57;5.33;;;4.80;;
9328;SDS011;4703;48.748;19.142;2022-10-31T05:40:26;6.57;;;5.60;;
9328;SDS011;4703;48.748;19.142;2022-10-31T05:42:55;6.97;;;6.27;;
9328;SDS011;4703;48.748;19.142;2022-10-31T05:45:23;6.97;;;6.27;;
9328;SDS011;4703;48.748;19.142;2022-10-31T05:47:51;7.30;;;6.60;;
9328;SDS011;4703;48.748;19.142;2022-10-31T05:50:18;6.43;;;5.83;;
9328;SDS011;4703;48.748;19.142;2022-10-31T05:52:45;9.90;;;7.30;;
9328;SDS011;4703;48.748;19.142;2022-10-31T05:55:12;7.33;;;6.50;;
9328;SDS011;4703;48.748;19.142;2022-10-31T05:57:39;7.40;;;6.57;;
9328;SDS011;4703;48.748;19.142;2022-10-31T06:00:07;7.33;;;6.63;;
9328;SDS011;4703;48.748;19.142;2022-10-31T06:02:34;8.20;;;7.33;;
9328;SDS011;4703;48.748;19.142;2022-10-31T06:05:02;6.70;;;6.10;;
9328;SDS011;4703;48.748;19.142;2022-10-31T06:07:33;12.57;;;7.23;;
9328;SDS011;4703;48.748;19.142;2022-10-31T06:10:02;8.23;;;6.50;;
9328;SDS011;4703;48.748;19.142;2022-10-31T06:12:31;9.17;;;8.27;;
9328;SDS011;4703;48.748;19.142;2022-10-31T06:14:58;9.53;;;8.13;;
9328;SDS011;4703;48.748;19.142;2022-10-31T06:17:25;8.50;;;7.60;;
9328;SDS011;4703;48.748;19.142;2022-10-31T06:19:52;10.10;;;8.07;;
9328;SDS011;4703;48.748;19.142;2022-10-31T06:22:18;11.23;;;9.87;;
9328;SDS011;4703;48.748;19.142;2022-10-31T06:24:45;9.97;;;8.83;;
9328;SDS011;4703;48.748;19.142;2022-10-31T06:27:12;9.57;;;8.67;;
9328;SDS011;4703;48.748;19.142;2022-10-31T06:29:39;10.10;;;9.00;;
9328;SDS011;4703;48.748;19.142;2022-10-31T06:32:08;8.40;;;7.30;;
9328;SDS011;4703;48.748;19.142;2022-10-31T06:34:38;8.77;;;7.10;;
9328;SDS011;4703;48.748;19.142;2022-10-31T06:37:06;9.73;;;7.30;;
9328;SDS011;4703;48.748;19.142;2022-10-31T06:39:34;8.30;;;7.40;;
9328;SDS011;4703;48.748;19.142;2022-10-31T06:42:01;7.43;;;6.73;;
9328;SDS011;4703;48.748;19.142;2022-10-31T06:44:30;7.53;;;6.83;;
9328;SDS011;4703;48.748;19.142;2022-10-31T06:46:57;8.57;;;7.77;;
9328;SDS011;4703;48.748;19.142;2022-10-31T06:49:24;6.57;;;5.90;;
9328;SDS011;4703;48.748;19.142;2022-10-31T06:51:50;7.20;;;6.43;;
9328;SDS011;4703;48.748;19.142;2022-10-31T06:54:18;7.63;;;6.83;;
9328;SDS011;4703;48.748;19.142;2022-10-31T06:56:45;7.13;;;6.43;;
9328;SDS011;4703;48.748;19.142;2022-10-31T06:59:15;6.20;;;5.60;;
9328;SDS011;4703;48.748;19.142;2022-10-31T07:01:43;7.23;;;5.80;;
9328;SDS011;4703;48.748;19.142;2022-10-31T07:04:10;8.27;;;7.30;;
9328;SDS011;4703;48.748;19.142;2022-10-31T07:06:37;6.27;;;5.60;;
9328;SDS011;4703;48.748;19.142;2022-10-31T07:09:04;6.67;;;5.70;;
9328;SDS011;4703;48.748;19.142;2022-10-31T07:11:31;6.70;;;6.10;;
9328;SDS011;4703;48.748;19.142;2022-10-31T07:13:59;6.70;;;6.03;;
9328;SDS011;4703;48.748;19.142;2022-10-31T07:16:26;9.70;;;8.70;;
9328;SDS011;4703;48.748;19.142;2022-10-31T07:18:53;6.60;;;6.00;;
9328;SDS011;4703;48.748;19.142;2022-10-31T07:21:20;7.17;;;6.47;;
9328;SDS011;4703;48.748;19.142;2022-10-31T07:23:47;7.60;;;5.60;;
9328;SDS011;4703;48.748;19.142;2022-10-31T07:26:15;7.03;;;6.33;;
9328;SDS011;4703;48.748;19.142;2022-10-31T07:28:42;7.20;;;6.10;;
9328;SDS011;4703;48.748;19.142;2022-10-31T07:31:09;9.90;;;8.20;;
9328;SDS011;4703;48.748;19.142;2022-10-31T07:33:36;9.00;;;7.20;;
9328;SDS011;4703;48.748;19.142;2022-10-31T07:36:03;8.83;;;7.93;;
9328;SDS011;4703;48.748;19.142;2022-10-31T07:38:30;7.70;;;6.90;;
9328;SDS011;4703;48.748;19.142;2022-10-31T07:40:57;7.20;;;6.50;;
9328;SDS011;4703;48.748;19.142;2022-10-31T07:43:24;7.87;;;6.70;;
9328;SDS011;4703;48.748;19.142;2022-10-31T07:45:51;6.93;;;6.23;;
9328;SDS011;4703;48.748;19.142;2022-10-31T07:48:19;7.27;;;6.53;;
9328;SDS011;4703;48.748;19.142;2022-10-31T07:50:47;7.00;;;6.40;;
9328;SDS011;4703;48.748;19.142;2022-10-31T07:53:14;7.33;;;6.30;;
9328;SDS011;4703;48.748;19.142;2022-10-31T07:55:42;7.30;;;6.60;;
9328;SDS011;4703;48.748;19.142;2022-10-31T07:58:11;7.57;;;6.77;;
9328;SDS011;4703;48.748;19.142;2022-10-31T08:00:44;9.13;;;7.17;;
9328;SDS011;4703;48.748;19.142;2022-10-31T08:03:14;9.50;;;8.50;;
9328;SDS011;4703;48.748;19.142;2022-10-31T08:05:43;8.40;;;7.50;;
9328;SDS011;4703;48.748;19.142;2022-10-31T08:08:12;7.80;;;7.00;;
9328;SDS011;4703;48.748;19.142;2022-10-31T08:10:40;8.47;;;7.67;;
9328;SDS011;4703;48.748;19.142;2022-10-31T08:13:11;9.20;;;7.30;;
9328;SDS011;4703;48.748;19.142;2022-10-31T08:15:40;9.00;;;8.10;;
9328;SDS011;4703;48.748;19.142;2022-10-31T08:18:14;10.50;;;8.73;;
9328;SDS011;4703;48.748;19.142;2022-10-31T08:20:41;10.90;;;8.93;;
9328;SDS011;4703;48.748;19.142;2022-10-31T08:23:10;9.37;;;8.37;;
9328;SDS011;4703;48.748;19.142;2022-10-31T08:25:38;9.27;;;8.23;;
9328;SDS011;4703;48.748;19.142;2022-10-31T08:28:05;9.10;;;8.20;;
9328;SDS011;4703;48.748;19.142;2022-10-31T08:30:34;12.63;;;9.10;;
9328;SDS011;4703;48.748;19.142;2022-10-31T08:35:31;10.97;;;8.03;;
9328;SDS011;4703;48.748;19.142;2022-10-31T08:38:01;10.40;;;8.50;;
9328;SDS011;4703;48.748;19.142;2022-10-31T08:40:29;9.87;;;8.87;;
9328;SDS011;4703;48.748;19.142;2022-10-31T08:43:02;9.10;;;8.00;;
9328;SDS011;4703;48.748;19.142;2022-10-31T08:45:36;10.53;;;8.93;;
9328;SDS011;4703;48.748;19.142;2022-10-31T08:48:04;11.00;;;9.37;;
9328;SDS011;4703;48.748;19.142;2022-10-31T08:50:36;9.43;;;8.07;;
9328;SDS011;4703;48.748;19.142;2022-10-31T08:53:05;11.50;;;9.03;;
9328;SDS011;4703;48.748;19.142;2022-10-31T08:55:35;9.93;;;8.93;;
9328;SDS011;4703;48.748;19.142;2022-10-31T08:58:04;11.33;;;7.90;;
9328;SDS011;4703;48.748;19.142;2022-10-31T09:00:34;9.10;;;8.17;;
9328;SDS011;4703;48.748;19.142;2022-10-31T09:03:03;10.13;;;9.00;;
9328;SDS011;4703;48.748;19.142;2022-10-31T09:05:32;9.87;;;8.93;;
9328;SDS011;4703;48.748;19.142;2022-10-31T09:08:00;11.63;;;9.60;;
9328;SDS011;4703;48.748;19.142;2022-10-31T09:10:30;9.60;;;8.70;;
9328;SDS011;4703;48.748;19.142;2022-10-31T09:13:01;12.70;;;9.40;;
9328;SDS011;4703;48.748;19.142;2022-10-31T09:15:36;12.07;;;8.77;;
9328;SDS011;4703;48.748;19.142;2022-10-31T09:18:06;9.50;;;8.00;;
9328;SDS011;4703;48.748;19.142;2022-10-31T09:20:35;10.20;;;9.10;;
9328;SDS011;4703;48.748;19.142;2022-10-31T09:23:04;9.30;;;8.30;;
9328;SDS011;4703;48.748;19.142;2022-10-31T09:25:35;11.80;;;9.50;;
9328;SDS011;4703;48.748;19.142;2022-10-31T09:28:03;12.30;;;10.00;;
9328;SDS011;4703;48.748;19.142;2022-10-31T09:30:33;13.50;;;10.43;;
9328;SDS011;4703;48.748;19.142;2022-10-31T09:33:03;14.07;;;11.60;;
9328;SDS011;4703;48.748;19.142;2022-10-31T09:35:36;11.33;;;9.80;;
9328;SDS011;4703;48.748;19.142;2022-10-31T09:38:05;11.77;;;9.57;;
9328;SDS011;4703;48.748;19.142;2022-10-31T09:40:43;11.60;;;10.17;;
9328;SDS011;4703;48.748;19.142;2022-10-31T09:51:20;15.87;;;13.97;;
9328;SDS011;4703;48.748;19.142;2022-10-31T09:54:02;16.20;;;11.70;;
9328;SDS011;4703;48.748;19.142;2022-10-31T09:56:47;15.10;;;11.77;;
9328;SDS011;4703;48.748;19.142;2022-10-31T09:59:18;11.50;;;10.30;;
9328;SDS011;4703;48.748;19.142;2022-10-31T10:01:59;11.30;;;9.43;;
9328;SDS011;4703;48.748;19.142;2022-10-31T10:04:34;10.50;;;9.50;;
9328;SDS011;4703;48.748;19.142;2022-10-31T10:07:22;13.63;;;11.40;;
9328;SDS011;4703;48.748;19.142;2022-10-31T10:10:17;14.63;;;12.23;;
9328;SDS011;4703;48.748;19.142;2022-10-31T10:27:49;26.10;;;21.03;;
9328;SDS011;4703;48.748;19.142;2022-10-31T10:30:43;18.10;;;16.10;;
9328;SDS011;4703;48.748;19.142;2022-10-31T10:33:36;19.20;;;14.60;;
9328;SDS011;4703;48.748;19.142;2022-10-31T10:42:04;17.73;;;13.60;;
9328;SDS011;4703;48.748;19.142;2022-10-31T10:44:57;14.33;;;11.63;;
9328;SDS011;4703;48.748;19.142;2022-10-31T10:47:44;16.80;;;12.43;;
9328;SDS011;4703;48.748;19.142;2022-10-31T10:55:36;16.57;;;13.13;;
9328;SDS011;4703;48.748;19.142;2022-10-31T10:58:17;17.87;;;14.47;;
9328;SDS011;4703;48.748;19.142;2022-10-31T11:00:45;14.40;;;12.90;;
9328;SDS011;4703;48.748;19.142;2022-10-31T11:03:13;13.97;;;11.80;;
9328;SDS011;4703;48.748;19.142;2022-10-31T11:05:50;14.60;;;12.60;;
9328;SDS011;4703;48.748;19.142;2022-10-31T11:08:23;14.63;;;11.77;;
9328;SDS011;4703;48.748;19.142;2022-10-31T11:10:57;13.00;;;11.57;;
9328;SDS011;4703;48.748;19.142;2022-10-31T11:13:46;14.53;;;11.23;;
9328;SDS011;4703;48.748;19.142;2022-10-31T11:16:28;13.50;;;11.97;;
9328;SDS011;4703;48.748;19.142;2022-10-31T11:19:06;14.13;;;12.63;;
9328;SDS011;4703;48.748;19.142;2022-10-31T11:21:49;15.63;;;13.70;;
9328;SDS011;4703;48.748;19.142;2022-10-31T11:24:23;15.47;;;13.77;;
9328;SDS011;4703;48.748;19.142;2022-10-31T11:27:03;14.93;;;12.37;;
9328;SDS011;4703;48.748;19.142;2022-10-31T11:29:39;12.60;;;11.30;;
9328;SDS011;4703;48.748;19.142;2022-10-31T11:32:08;13.20;;;11.70;;
9328;SDS011;4703;48.748;19.142;2022-10-31T11:34:53;12.57;;;11.07;;
9328;SDS011;4703;48.748;19.142;2022-10-31T11:37:34;12.37;;;11.17;;
9328;SDS011;4703;48.748;19.142;2022-10-31T11:40:14;11.80;;;10.60;;
9328;SDS011;4703;48.748;19.142;2022-10-31T11:42:46;11.93;;;10.43;;
9328;SDS011;4703;48.748;19.142;2022-10-31T11:45:17;11.13;;;10.03;;
9328;SDS011;4703;48.748;19.142;2022-10-31T11:47:51;11.53;;;10.40;;
9328;SDS011;4703;48.748;19.142;2022-10-31T11:50:26;13.90;;;10.77;;
9328;SDS011;4703;48.748;19.142;2022-10-31T11:53:00;12.50;;;11.33;;
9328;SDS011;4703;48.748;19.142;2022-10-31T11:55:35;11.03;;;9.13;;
9328;SDS011;4703;48.748;19.142;2022-10-31T11:58:04;11.60;;;10.23;;
9328;SDS011;4703;48.748;19.142;2022-10-31T12:00:56;10.40;;;9.40;;
9328;SDS011;4703;48.748;19.142;2022-10-31T12:06:34;14.33;;;10.50;;
9328;SDS011;4703;48.748;19.142;2022-10-31T12:20:52;12.70;;;11.40;;
9328;SDS011;4703;48.748;19.142;2022-10-31T12:23:40;12.70;;;11.50;;
9328;SDS011;4703;48.748;19.142;2022-10-31T12:35:22;13.03;;;11.80;;
9328;SDS011;4703;48.748;19.142;2022-10-31T12:38:41;11.60;;;10.57;;
9328;SDS011;4703;48.748;19.142;2022-10-31T12:44:26;12.80;;;11.50;;
9328;SDS011;4703;48.748;19.142;2022-10-31T12:47:09;12.13;;;10.97;;
9328;SDS011;4703;48.748;19.142;2022-10-31T12:52:45;12.23;;;11.13;;
9328;SDS011;4703;48.748;19.142;2022-10-31T12:55:37;11.20;;;10.10;;
9328;SDS011;4703;48.748;19.142;2022-10-31T12:58:37;12.30;;;11.00;;
9328;SDS011;4703;48.748;19.142;2022-10-31T13:01:19;13.20;;;11.80;;
9328;SDS011;4703;48.748;19.142;2022-10-31T13:03:57;14.33;;;10.33;;
9328;SDS011;4703;48.748;19.142;2022-10-31T13:06:33;12.73;;;11.47;;
9328;SDS011;4703;48.748;19.142;2022-10-31T13:09:19;11.70;;;10.60;;
9328;SDS011;4703;48.748;19.142;2022-10-31T13:12:10;12.00;;;10.80;;
9328;SDS011;4703;48.748;19.142;2022-10-31T13:14:43;12.07;;;10.97;;
9328;SDS011;4703;48.748;19.142;2022-10-31T13:17:22;11.47;;;10.30;;
9328;SDS011;4703;48.748;19.142;2022-10-31T13:20:05;11.70;;;10.57;;
9328;SDS011;4703;48.748;19.142;2022-10-31T13:23:08;13.20;;;11.67;;
9328;SDS011;4703;48.748;19.142;2022-10-31T13:26:08;12.50;;;11.20;;
9328;SDS011;4703;48.748;19.142;2022-10-31T13:31:12;13.00;;;10.70;;
9328;SDS011;4703;48.748;19.142;2022-10-31T13:34:00;13.80;;;12.40;;
9328;SDS011;4703;48.748;19.142;2022-10-31T13:45:36;13.70;;;12.30;;
9328;SDS011;4703;48.748;19.142;2022-10-31T13:50:58;14.30;;;12.80;;
9328;SDS011;4703;48.748;19.142;2022-10-31T14:01:23;14.90;;;12.70;;
9328;SDS011;4703;48.748;19.142;2022-10-31T14:03:57;14.60;;;13.10;;
9328;SDS011;4703;48.748;19.142;2022-10-31T14:15:43;14.40;;;12.80;;
9328;SDS011;4703;48.748;19.142;2022-10-31T14:18:04;14.43;;;12.57;;
9328;SDS011;4703;48.748;19.142;2022-10-31T14:20:47;19.30;;;12.40;;
9328;SDS011;4703;48.748;19.142;2022-10-31T14:26:33;18.80;;;16.00;;
9328;SDS011;4703;48.748;19.142;2022-10-31T14:28:53;15.60;;;13.17;;
9328;SDS011;4703;48.748;19.142;2022-10-31T14:34:19;13.20;;;11.90;;
9328;SDS011;4703;48.748;19.142;2022-10-31T14:36:59;13.93;;;11.77;;
9328;SDS011;4703;48.748;19.142;2022-10-31T14:39:58;13.23;;;11.90;;
9328;SDS011;4703;48.748;19.142;2022-10-31T14:43:18;13.40;;;12.07;;
9328;SDS011;4703;48.748;19.142;2022-10-31T14:46:31;13.30;;;11.90;;
9328;SDS011;4703;48.748;19.142;2022-10-31T14:52:07;12.23;;;11.00;;
9328;SDS011;4703;48.748;19.142;2022-10-31T14:54:36;13.33;;;12.03;;
9328;SDS011;4703;48.748;19.142;2022-10-31T14:57:22;12.93;;;11.60;;
9328;SDS011;4703;48.748;19.142;2022-10-31T14:59:57;17.80;;;13.27;;
9328;SDS011;4703;48.748;19.142;2022-10-31T15:02:45;14.67;;;13.17;;
9328;SDS011;4703;48.748;19.142;2022-10-31T15:06:02;19.40;;;13.00;;
9328;SDS011;4703;48.748;19.142;2022-10-31T15:08:47;14.70;;;12.40;;
9328;SDS011;4703;48.748;19.142;2022-10-31T15:11:20;17.10;;;13.37;;
9328;SDS011;4703;48.748;19.142;2022-10-31T15:13:55;17.93;;;14.30;;
9328;SDS011;4703;48.748;19.142;2022-10-31T15:16:26;18.37;;;14.13;;
9328;SDS011;4703;48.748;19.142;2022-10-31T15:19:10;17.20;;;14.93;;
9328;SDS011;4703;48.748;19.142;2022-10-31T15:21:43;17.43;;;14.60;;
9328;SDS011;4703;48.748;19.142;2022-10-31T15:24:15;17.70;;;15.20;;
9328;SDS011;4703;48.748;19.142;2022-10-31T15:26:48;16.97;;;15.10;;
9328;SDS011;4703;48.748;19.142;2022-10-31T15:29:19;16.17;;;14.57;;
9328;SDS011;4703;48.748;19.142;2022-10-31T15:31:58;15.97;;;14.20;;
9328;SDS011;4703;48.748;19.142;2022-10-31T15:34:39;16.70;;;14.93;;
9328;SDS011;4703;48.748;19.142;2022-10-31T15:37:11;17.37;;;15.40;;
9328;SDS011;4703;48.748;19.142;2022-10-31T15:39:41;16.60;;;14.80;;
9328;SDS011;4703;48.748;19.142;2022-10-31T15:42:29;22.57;;;17.67;;
9328;SDS011;4703;48.748;19.142;2022-10-31T15:45:03;36.43;;;30.60;;
9328;SDS011;4703;48.748;19.142;2022-10-31T15:47:46;26.20;;;21.10;;
9328;SDS011;4703;48.748;19.142;2022-10-31T15:50:50;20.07;;;16.43;;
9328;SDS011;4703;48.748;19.142;2022-10-31T15:53:21;15.83;;;14.20;;
9328;SDS011;4703;48.748;19.142;2022-10-31T15:56:25;20.00;;;16.07;;
9328;SDS011;4703;48.748;19.142;2022-10-31T15:58:58;17.47;;;15.57;;
9328;SDS011;4703;48.748;19.142;2022-10-31T16:01:27;24.00;;;19.83;;
9328;SDS011;4703;48.748;19.142;2022-10-31T16:06:37;21.27;;;16.53;;
9328;SDS011;4703;48.748;19.142;2022-10-31T16:09:18;19.27;;;15.67;;
9328;SDS011;4703;48.748;19.142;2022-10-31T16:11:48;18.13;;;15.53;;
9328;SDS011;4703;48.748;19.142;2022-10-31T16:14:17;17.80;;;16.00;;
9328;SDS011;4703;48.748;19.142;2022-10-31T16:16:51;17.40;;;15.50;;
9328;SDS011;4703;48.748;19.142;2022-10-31T16:21:52;20.23;;;15.83;;
9328;SDS011;4703;48.748;19.142;2022-10-31T16:24:30;18.93;;;15.43;;
9328;SDS011;4703;48.748;19.142;2022-10-31T16:27:06;19.23;;;15.73;;
9328;SDS011;4703;48.748;19.142;2022-10-31T16:29:46;17.20;;;15.23;;
9328;SDS011;4703;48.748;19.142;2022-10-31T16:35:32;20.27;;;16.70;;
9328;SDS011;4703;48.748;19.142;2022-10-31T16:38:05;21.00;;;17.53;;
9328;SDS011;4703;48.748;19.142;2022-10-31T16:40:37;18.53;;;15.57;;
9328;SDS011;4703;48.748;19.142;2022-10-31T16:43:04;16.67;;;14.80;;
9328;SDS011;4703;48.748;19.142;2022-10-31T16:45:36;15.40;;;13.80;;
9328;SDS011;4703;48.748;19.142;2022-10-31T16:48:11;17.73;;;14.43;;
9328;SDS011;4703;48.748;19.142;2022-10-31T16:50:41;17.30;;;14.07;;
9328;SDS011;4703;48.748;19.142;2022-10-31T16:53:10;18.83;;;13.93;;
9328;SDS011;4703;48.748;19.142;2022-10-31T16:55:47;18.80;;;13.70;;
9328;SDS011;4703;48.748;19.142;2022-10-31T16:58:23;19.73;;;14.30;;
9328;SDS011;4703;48.748;19.142;2022-10-31T17:00:56;20.70;;;14.57;;
9328;SDS011;4703;48.748;19.142;2022-10-31T17:03:23;24.13;;;16.57;;
9328;SDS011;4703;48.748;19.142;2022-10-31T17:05:50;29.70;;;19.20;;
9328;SDS011;4703;48.748;19.142;2022-10-31T17:08:18;54.00;;;38.70;;
9328;SDS011;4703;48.748;19.142;2022-10-31T17:10:45;27.13;;;19.30;;
9328;SDS011;4703;48.748;19.142;2022-10-31T17:13:16;17.40;;;14.50;;
9328;SDS011;4703;48.748;19.142;2022-10-31T17:15:50;20.80;;;14.53;;
9328;SDS011;4703;48.748;19.142;2022-10-31T17:18:20;20.63;;;15.03;;
9328;SDS011;4703;48.748;19.142;2022-10-31T17:20:56;20.77;;;14.93;;
9328;SDS011;4703;48.748;19.142;2022-10-31T17:23:26;19.40;;;14.60;;
9328;SDS011;4703;48.748;19.142;2022-10-31T17:25:54;26.67;;;17.50;;
9328;SDS011;4703;48.748;19.142;2022-10-31T17:28:22;26.93;;;16.73;;
9328;SDS011;4703;48.748;19.142;2022-10-31T17:30:50;24.80;;;17.03;;
9328;SDS011;4703;48.748;19.142;2022-10-31T17:33:19;18.67;;;13.97;;
9328;SDS011;4703;48.748;19.142;2022-10-31T17:35:46;20.63;;;14.70;;
9328;SDS011;4703;48.748;19.142;2022-10-31T17:38:13;21.27;;;15.80;;
9328;SDS011;4703;48.748;19.142;2022-10-31T17:40:40;18.03;;;13.10;;
9328;SDS011;4703;48.748;19.142;2022-10-31T17:43:08;18.97;;;13.83;;
9328;SDS011;4703;48.748;19.142;2022-10-31T17:45:40;20.33;;;13.47;;
9328;SDS011;4703;48.748;19.142;2022-10-31T17:48:10;22.50;;;14.00;;
9328;SDS011;4703;48.748;19.142;2022-10-31T17:50:38;19.20;;;15.20;;
9328;SDS011;4703;48.748;19.142;2022-10-31T17:53:05;23.57;;;14.20;;
9328;SDS011;4703;48.748;19.142;2022-10-31T17:55:32;17.80;;;13.13;;
9328;SDS011;4703;48.748;19.142;2022-10-31T17:58:02;18.70;;;13.70;;
9328;SDS011;4703;48.748;19.142;2022-10-31T18:00:30;13.03;;;11.13;;
9328;SDS011;4703;48.748;19.142;2022-10-31T18:02:58;13.73;;;12.23;;
9328;SDS011;4703;48.748;19.142;2022-10-31T18:05:28;17.47;;;12.10;;
9328;SDS011;4703;48.748;19.142;2022-10-31T18:07:55;14.67;;;11.83;;